createdAt,value
2018-03-07T00:02:50.207Z,87.40
2018-03-07T00:05:55.780Z,87.47
2018-03-07T00:09:01.284Z,87.61
2018-03-07T00:12:06.846Z,87.69
2018-03-07T00:15:12.378Z,87.69
2018-03-07T00:18:17.947Z,87.47
2018-03-07T00:21:23.449Z,87.56
2018-03-07T00:24:28.991Z,87.62
2018-03-07T00:27:34.498Z,87.47
2018-03-07T00:30:40.036Z,87.30
2018-03-07T00:33:45.304Z,87.48
2018-03-07T00:36:50.865Z,87.50
2018-03-07T00:39:56.369Z,87.48
2018-03-07T00:43:01.980Z,87.50
2018-03-07T00:46:07.456Z,87.56
2018-03-07T00:49:12.998Z,87.58
2018-03-07T00:52:18.505Z,87.57
2018-03-07T00:55:24.064Z,87.71
2018-03-07T00:58:29.571Z,87.72
2018-03-07T01:01:35.110Z,87.76
2018-03-07T01:47:45.183Z,87.20
2018-03-07T01:50:50.755Z,87.14
2018-03-07T01:53:56.313Z,86.89
2018-03-07T01:57:01.948Z,86.82
2018-03-07T02:00:07.737Z,86.71
2018-03-07T02:03:13.166Z,86.47
2018-03-07T02:06:18.728Z,86.67
2018-03-07T02:09:24.260Z,86.70
2018-03-07T02:12:29.803Z,86.51
2018-03-07T02:15:35.313Z,86.49
2018-03-07T02:18:40.866Z,86.43
2018-03-07T02:21:46.380Z,86.21
2018-03-07T02:24:57.337Z,86.13
2018-03-07T02:28:22.889Z,86.01
2018-03-07T02:31:37.553Z,85.83
2018-03-07T02:34:43.093Z,86.07
2018-03-07T02:37:48.353Z,86.04
2018-03-07T02:40:53.909Z,86.13
2018-03-07T02:43:59.408Z,86.22
2018-03-07T02:47:05.175Z,86.02
2018-03-07T02:50:10.787Z,86.24
2018-03-07T02:53:16.335Z,85.87
2018-03-07T02:56:21.847Z,85.94
2018-03-07T02:59:27.534Z,85.88
2018-03-07T03:02:33.100Z,85.73
2018-03-07T03:05:38.611Z,85.85
2018-03-07T03:08:44.200Z,85.81
2018-03-07T03:11:49.717Z,85.84
2018-03-07T03:14:55.268Z,86.09
2018-03-07T03:18:00.797Z,85.84
2018-03-07T03:21:06.350Z,85.83
2018-03-07T03:24:11.859Z,85.97
2018-03-07T03:27:17.433Z,85.79
2018-03-07T03:30:22.938Z,85.81
2018-03-07T03:33:28.503Z,85.84
2018-03-07T03:36:34.006Z,86.02
2018-03-07T03:39:39.549Z,85.84
2018-03-07T03:42:45.054Z,85.87
2018-03-07T03:45:50.925Z,85.77
2018-03-07T03:48:56.481Z,85.81
2018-03-07T03:52:02.262Z,85.75
2018-03-07T03:55:07.849Z,85.61
2018-03-07T03:58:13.349Z,85.99
2018-03-07T04:01:18.901Z,85.72
2018-03-07T04:04:24.419Z,85.72
2018-03-07T04:07:29.983Z,85.89
2018-03-07T04:10:35.517Z,85.79
2018-03-07T04:13:41.086Z,85.73
2018-03-07T04:16:46.694Z,86.00
2018-03-07T04:19:52.248Z,85.84
2018-03-07T04:22:57.774Z,85.83
2018-03-07T04:26:03.318Z,85.87
2018-03-07T04:29:08.861Z,85.83
2018-03-07T04:32:14.360Z,85.76
2018-03-07T04:35:19.910Z,85.66
2018-03-07T04:38:25.454Z,85.67
2018-03-07T04:41:31.088Z,85.79
2018-03-07T04:44:36.650Z,85.72
2018-03-07T04:47:43.500Z,85.76
2018-03-07T04:50:49.017Z,85.70
2018-03-07T04:53:54.568Z,85.82
2018-03-07T04:57:00.091Z,85.63
2018-03-07T05:00:05.379Z,85.71
2018-03-07T05:03:10.877Z,85.79
2018-03-07T05:06:16.469Z,85.79
2018-03-07T05:09:21.990Z,85.63
2018-03-07T05:12:27.562Z,85.62
2018-03-07T05:15:33.203Z,85.72
2018-03-07T05:18:38.705Z,85.56
2018-03-07T05:21:44.261Z,85.62
2018-03-07T05:24:49.815Z,85.70
2018-03-07T05:27:55.360Z,85.67
2018-03-07T05:31:01.822Z,85.70
2018-03-07T05:34:07.373Z,85.88
2018-03-07T05:37:16.455Z,85.68
2018-03-07T05:40:21.965Z,85.69
2018-03-07T05:43:27.523Z,85.79
2018-03-07T05:46:33.042Z,85.63
2018-03-07T05:49:38.591Z,85.62
2018-03-07T05:52:44.106Z,85.64
2018-03-07T05:55:49.668Z,85.65
2018-03-07T05:58:55.227Z,85.65
2018-03-07T06:02:00.732Z,85.61
2018-03-07T06:05:06.420Z,85.64
2018-03-07T06:08:13.897Z,85.71
2018-03-07T06:11:19.449Z,85.83
2018-03-07T06:14:25.110Z,85.85
2018-03-07T06:17:30.667Z,85.64
2018-03-07T06:20:36.176Z,85.77
2018-03-07T06:23:41.729Z,85.62
2018-03-07T06:26:47.232Z,85.58
2018-03-07T06:29:52.777Z,85.53
2018-03-07T06:32:58.329Z,85.63
2018-03-07T06:36:03.880Z,85.50
2018-03-07T06:39:09.398Z,85.53
2018-03-07T06:42:14.947Z,85.50
2018-03-07T06:45:20.452Z,85.51
2018-03-07T06:48:25.993Z,85.58
2018-03-07T06:51:31.496Z,85.55
2018-03-07T06:54:37.055Z,85.46
2018-03-07T06:57:42.606Z,85.49
2018-03-07T07:00:48.193Z,85.38
2018-03-07T07:03:53.744Z,85.63
2018-03-07T07:06:59.137Z,85.50
2018-03-07T07:10:04.193Z,85.57
2018-03-07T07:13:09.884Z,85.40
2018-03-07T07:16:15.514Z,85.39
2018-03-07T07:19:21.070Z,85.34
2018-03-07T07:22:26.587Z,85.47
2018-03-07T07:25:32.144Z,85.43
2018-03-07T07:28:37.670Z,85.23
2018-03-07T07:31:43.209Z,85.32
2018-03-07T07:34:48.757Z,85.35
2018-03-07T07:37:54.260Z,85.42
2018-03-07T07:40:59.827Z,85.46
2018-03-07T07:44:05.381Z,85.46
2018-03-07T07:47:11.393Z,85.43
2018-03-07T07:50:17.039Z,85.50
2018-03-07T07:53:22.545Z,85.44
2018-03-07T07:56:28.109Z,85.51
2018-03-07T07:59:33.613Z,85.40
2018-03-07T08:02:39.157Z,85.53
2018-03-07T08:05:44.714Z,85.45
2018-03-07T08:08:50.216Z,85.54
2018-03-07T08:11:55.785Z,85.67
2018-03-07T08:15:01.284Z,85.61
2018-03-07T08:18:06.870Z,85.28
2018-03-07T08:21:12.636Z,85.35
2018-03-07T08:24:17.884Z,85.33
2018-03-07T08:27:23.462Z,85.33
2018-03-07T08:30:28.998Z,85.44
2018-03-07T08:33:34.506Z,85.33
2018-03-07T08:36:40.296Z,85.49
2018-03-07T08:39:45.800Z,85.31
2018-03-07T08:42:51.368Z,85.42
2018-03-07T08:45:56.894Z,85.29
2018-03-07T08:49:02.449Z,85.30
2018-03-07T08:52:08.088Z,85.43
2018-03-07T08:55:13.659Z,85.49
2018-03-07T08:58:19.171Z,85.47
2018-03-07T09:01:25.460Z,85.37
2018-03-07T09:04:31.334Z,85.55
2018-03-07T09:07:36.881Z,85.56
2018-03-07T09:10:43.802Z,85.39
2018-03-07T09:13:49.309Z,85.50
2018-03-07T09:16:54.863Z,85.65
2018-03-07T09:20:00.403Z,85.57
2018-03-07T09:23:05.964Z,85.66
2018-03-07T09:26:11.513Z,85.59
2018-03-07T09:29:17.095Z,85.89
2018-03-07T09:32:22.605Z,85.59
2018-03-07T09:35:28.148Z,85.48
2018-03-07T09:38:33.657Z,85.39
2018-03-07T09:41:39.246Z,85.46
2018-03-07T09:44:44.814Z,85.39
2018-03-07T09:47:50.420Z,85.48
2018-03-07T09:50:55.934Z,85.45
2018-03-07T09:54:01.489Z,85.41
2018-03-07T09:57:07.006Z,85.47
2018-03-07T10:00:12.556Z,85.44
2018-03-07T10:03:18.066Z,85.52
2018-03-07T10:06:23.613Z,85.50
2018-03-07T10:09:29.126Z,85.44
2018-03-07T10:12:34.673Z,85.31
2018-03-07T10:15:40.171Z,85.40
2018-03-07T10:18:45.722Z,85.42
2018-03-07T10:21:51.247Z,85.42
2018-03-07T10:24:56.789Z,85.59
2018-03-07T10:28:02.400Z,85.57
2018-03-07T10:31:07.954Z,85.80
2018-03-07T10:34:13.218Z,85.93
2018-03-07T10:37:18.768Z,86.09
2018-03-07T10:40:24.298Z,85.76
2018-03-07T10:43:29.853Z,85.73
2018-03-07T10:46:35.376Z,85.66
2018-03-07T10:49:41.091Z,85.83
2018-03-07T10:52:46.644Z,85.92
2018-03-07T10:55:52.249Z,85.68
2018-03-07T10:58:57.787Z,85.81
2018-03-07T11:02:03.334Z,85.83
2018-03-07T11:05:08.839Z,85.49
2018-03-07T11:08:14.390Z,85.61
2018-03-07T11:11:19.937Z,85.85
2018-03-07T11:14:25.487Z,85.88
2018-03-07T11:17:31.005Z,85.91
2018-03-07T11:20:36.549Z,86.16
2018-03-07T11:23:42.053Z,86.10
2018-03-07T11:26:47.594Z,85.83
2018-03-07T11:29:53.152Z,85.88
2018-03-07T11:32:58.661Z,85.75
2018-03-07T11:36:04.225Z,86.09
2018-03-07T11:39:09.749Z,86.16
2018-03-07T11:42:15.302Z,86.28
2018-03-07T11:45:20.883Z,85.96
2018-03-07T11:48:26.445Z,85.80
2018-03-07T11:51:31.999Z,85.94
2018-03-07T11:54:37.588Z,85.80
2018-03-07T11:57:44.215Z,85.80
2018-03-07T12:00:49.746Z,86.06
2018-03-07T12:03:55.294Z,86.44
2018-03-07T12:07:00.849Z,86.14
2018-03-07T12:10:06.422Z,85.81
2018-03-07T12:13:11.934Z,86.01
2018-03-07T12:16:17.480Z,86.00
2018-03-07T12:19:22.985Z,85.96
2018-03-07T12:22:28.528Z,85.80
2018-03-07T12:25:34.034Z,85.74
2018-03-07T12:28:39.802Z,85.67
2018-03-07T12:31:45.349Z,85.82
2018-03-07T12:34:50.857Z,86.15
2018-03-07T12:37:56.418Z,86.58
2018-03-07T12:41:01.921Z,86.19
2018-03-07T12:44:07.481Z,86.02
2018-03-07T12:47:13.125Z,86.08
2018-03-07T12:50:18.630Z,86.13
2018-03-07T12:53:24.237Z,86.52
2018-03-07T12:56:29.736Z,86.51
2018-03-07T12:59:35.592Z,86.27
2018-03-07T13:02:41.137Z,85.99
2018-03-07T13:05:46.668Z,86.48
2018-03-07T13:08:52.225Z,86.87
2018-03-07T13:11:57.729Z,86.59
2018-03-07T13:15:03.300Z,87.49
2018-03-07T13:18:08.801Z,87.51
2018-03-07T13:21:14.357Z,87.04
2018-03-07T13:24:19.901Z,86.61
2018-03-07T13:27:25.450Z,87.21
2018-03-07T13:30:31.021Z,86.38
2018-03-07T13:33:36.554Z,86.46
2018-03-07T13:36:42.101Z,86.08
2018-03-07T13:39:47.598Z,86.14
2018-03-07T13:42:53.152Z,85.97
2018-03-07T13:45:58.666Z,86.28
2018-03-07T13:49:04.210Z,86.64
2018-03-07T13:52:09.760Z,86.39
2018-03-07T13:55:15.306Z,86.22
2018-03-07T13:58:20.810Z,85.98
2018-03-07T14:01:26.350Z,86.30
2018-03-07T14:04:31.857Z,86.53
2018-03-07T14:07:39.429Z,86.37
2018-03-07T14:10:45.321Z,86.05
2018-03-07T14:13:50.869Z,86.52
2018-03-07T14:16:56.294Z,86.67
2018-03-07T14:20:01.800Z,86.36
2018-03-07T14:23:07.409Z,86.18
2018-03-07T14:26:12.993Z,86.01
2018-03-07T14:29:18.557Z,86.00
2018-03-07T14:32:24.066Z,85.92
2018-03-07T14:35:29.611Z,86.11
2018-03-07T14:38:35.119Z,86.15
2018-03-07T14:41:40.664Z,86.08
2018-03-07T14:44:46.201Z,85.94
2018-03-07T14:47:51.754Z,85.91
2018-03-07T14:50:57.476Z,85.98
2018-03-07T14:54:03.018Z,85.94
2018-03-07T14:57:08.554Z,85.86
2018-03-07T15:00:14.107Z,85.74
2018-03-07T15:03:19.327Z,85.82
2018-03-07T15:06:24.880Z,86.40
2018-03-07T15:09:30.377Z,85.87
2018-03-07T15:12:35.925Z,85.97
2018-03-07T15:15:41.513Z,85.88
2018-03-07T15:18:47.057Z,85.99
2018-03-07T15:21:52.596Z,85.92
2018-03-07T15:24:58.102Z,85.97
2018-03-07T15:28:03.648Z,85.86
2018-03-07T15:31:09.216Z,86.04
2018-03-07T15:34:14.708Z,85.99
2018-03-07T15:37:20.243Z,85.87
2018-03-07T15:40:25.763Z,85.85
2018-03-07T15:43:31.593Z,85.90
2018-03-07T15:46:37.105Z,86.38
2018-03-07T15:49:42.657Z,85.96
2018-03-07T15:52:48.161Z,86.06
2018-03-07T15:55:53.713Z,86.16
2018-03-07T15:58:59.228Z,86.32
2018-03-07T16:02:04.765Z,86.34
2018-03-07T16:05:10.289Z,86.30
2018-03-07T16:08:16.080Z,86.50
2018-03-07T16:11:21.629Z,86.28
2018-03-07T16:14:27.131Z,86.08
2018-03-07T16:17:32.687Z,86.36
2018-03-07T16:20:38.198Z,86.27
2018-03-07T16:23:43.738Z,86.10
2018-03-07T16:26:49.389Z,86.10
2018-03-07T16:29:56.558Z,86.00
2018-03-07T16:33:02.081Z,85.95
2018-03-07T16:36:07.637Z,86.16
2018-03-07T16:42:43.667Z,86.02
2018-03-07T16:45:58.366Z,86.04
2018-03-07T16:49:17.322Z,86.23
2018-03-07T16:52:25.009Z,86.05
2018-03-07T16:55:30.770Z,86.05
2018-03-07T16:58:47.245Z,86.10
2018-03-07T17:02:28.885Z,85.97
2018-03-07T17:09:19.649Z,86.03
2018-03-07T17:12:35.830Z,86.08
2018-03-07T17:16:01.781Z,86.01
2018-03-07T17:19:08.573Z,85.95
2018-03-07T17:22:14.224Z,86.04
2018-03-07T17:25:22.877Z,86.01
2018-03-07T17:28:29.276Z,85.95
2018-03-07T17:31:39.209Z,85.96
2018-03-07T17:34:59.532Z,86.02
2018-03-07T17:38:05.382Z,85.99
2018-03-07T17:41:11.227Z,85.88
2018-03-07T17:44:16.788Z,85.96
2018-03-07T17:47:22.583Z,86.14
2018-03-07T17:50:28.307Z,85.88
2018-03-07T17:53:35.121Z,85.91
2018-03-07T17:56:40.925Z,85.91
2018-03-07T17:59:47.141Z,85.92
2018-03-07T18:02:52.911Z,85.93
2018-03-07T18:05:58.525Z,85.87
2018-03-07T18:09:04.061Z,85.83
2018-03-07T18:12:10.097Z,85.85
2018-03-07T18:15:15.831Z,85.87
2018-03-07T18:18:21.474Z,85.88
2018-03-07T18:21:27.248Z,85.91
2018-03-07T18:24:33.045Z,85.97
2018-03-07T18:27:39.193Z,85.86
2018-03-07T18:30:49.052Z,85.82
2018-03-07T18:33:54.737Z,85.86
2018-03-07T18:37:16.643Z,85.83
2018-03-07T18:40:41.878Z,85.87
2018-03-07T18:44:27.881Z,85.83
2018-03-07T18:47:47.429Z,85.83
2018-03-07T18:50:53.299Z,85.88
2018-03-07T18:53:59.011Z,85.89
2018-03-07T18:57:05.436Z,85.91
2018-03-07T19:00:11.342Z,85.84
2018-03-07T19:03:18.098Z,86.01
2018-03-07T19:06:23.709Z,85.85
2018-03-07T19:09:31.868Z,85.83
2018-03-07T19:12:42.042Z,85.84
2018-03-07T19:15:47.625Z,85.93
2018-03-07T19:18:53.360Z,85.86
2018-03-07T19:21:59.070Z,85.95
2018-03-07T19:25:04.785Z,85.95
2018-03-07T19:28:10.561Z,86.02
2018-03-07T19:31:16.218Z,85.91
2018-03-07T19:34:21.990Z,85.92
2018-03-07T19:37:27.689Z,85.92
2018-03-07T19:40:33.397Z,86.00
2018-03-07T19:43:39.091Z,85.86
2018-03-07T19:46:44.833Z,85.97
2018-03-07T19:49:56.181Z,85.94
2018-03-07T19:53:20.566Z,85.91
2018-03-07T19:56:45.421Z,85.92
2018-03-07T20:00:35.432Z,85.97
2018-03-07T20:07:46.264Z,86.01
2018-03-07T20:14:43.584Z,85.94
2018-03-07T20:18:23.045Z,85.97
2018-03-07T20:22:05.532Z,86.07
2018-03-07T20:25:32.439Z,86.03
2018-03-07T20:28:57.029Z,86.00
2018-03-07T20:32:25.193Z,86.21
2018-03-07T20:35:50.331Z,86.13
2018-03-07T20:39:18.628Z,86.16
2018-03-07T20:42:45.286Z,86.57
2018-03-07T20:46:11.750Z,86.18
2018-03-07T20:49:37.116Z,86.36
2018-03-07T20:56:35.216Z,86.32
2018-03-07T21:00:06.915Z,86.11
2018-03-07T21:03:35.888Z,86.28
2018-03-07T21:07:01.217Z,86.55
2018-03-07T21:10:25.855Z,86.51
2018-03-07T21:13:49.513Z,86.37
2018-03-07T21:17:31.658Z,86.25
2018-03-07T21:20:59.893Z,86.32
2018-03-07T21:24:28.424Z,86.59
2018-03-07T21:28:06.193Z,86.27
2018-03-07T21:35:22.710Z,86.19
2018-03-07T21:38:52.295Z,86.29
2018-03-07T21:42:25.121Z,86.25
2018-03-07T21:49:24.619Z,86.59
2018-03-07T21:52:59.995Z,86.27
2018-03-07T21:56:29.181Z,86.58
2018-03-07T22:00:12.498Z,86.67
2018-03-07T22:03:43.568Z,86.57
2018-03-07T22:07:12.100Z,86.52
2018-03-07T22:10:42.728Z,86.49
2018-03-07T22:14:11.391Z,86.45
2018-03-07T22:21:17.957Z,86.59
2018-03-07T22:24:46.097Z,86.37
2018-03-07T22:28:17.785Z,86.45
2018-03-07T22:31:49.524Z,86.34
2018-03-07T22:38:53.353Z,86.39
2018-03-07T22:42:24.877Z,86.58
2018-03-07T22:45:54.894Z,86.39
2018-03-07T22:49:23.173Z,86.35
2018-03-07T22:52:44.451Z,86.23
2018-03-07T22:56:15.239Z,86.40
2018-03-07T22:59:21.021Z,86.29
2018-03-07T23:02:26.526Z,86.25
2018-03-07T23:05:32.106Z,86.29
2018-03-07T23:08:37.607Z,86.33
2018-03-07T23:11:43.161Z,86.27
2018-03-07T23:14:48.965Z,86.24
2018-03-07T23:17:54.701Z,86.52
2018-03-07T23:21:00.269Z,86.60
2018-03-07T23:24:05.766Z,86.48
2018-03-07T23:27:11.309Z,86.60
2018-03-07T23:30:16.808Z,86.29
2018-03-07T23:33:22.393Z,86.65
2018-03-07T23:36:27.906Z,86.57
2018-03-07T23:39:33.460Z,86.34
2018-03-07T23:42:39.552Z,86.56
2018-03-07T23:45:45.318Z,86.41
2018-03-07T23:48:51.223Z,86.27
2018-03-07T23:51:56.932Z,86.38
2018-03-07T23:55:02.448Z,86.29
2018-03-07T23:58:08.002Z,86.31
